createdAt,value
2022-12-04T00:01:19.800Z,99.10
2022-12-04T00:03:46.873Z,99.10
2022-12-04T00:06:16.186Z,98.76
2022-12-04T00:08:42.907Z,99.59
2022-12-04T00:11:12.242Z,98.32
2022-12-04T00:13:39.167Z,98.34
2022-12-04T00:16:08.008Z,98.42
2022-12-04T00:18:35.734Z,98.96
2022-12-04T00:21:08.162Z,98.18
2022-12-04T00:23:35.545Z,98.08
2022-12-04T00:26:08.369Z,98.70
2022-12-04T00:28:36.221Z,98.03
2022-12-04T00:31:07.752Z,97.87
2022-12-04T00:33:35.149Z,99.34
2022-12-04T00:36:04.611Z,98.57
2022-12-04T00:38:31.197Z,98.25
2022-12-04T00:40:58.018Z,99.04
2022-12-04T00:43:24.551Z,98.74
2022-12-04T00:45:52.836Z,98.88
2022-12-04T00:48:19.482Z,99.27
2022-12-04T00:50:46.249Z,100.00
2022-12-04T00:53:13.520Z,100.00
2022-12-04T00:55:41.545Z,100.00
2022-12-04T00:58:08.805Z,100.00
2022-12-04T01:00:37.087Z,100.00
2022-12-04T01:03:06.259Z,100.00
2022-12-04T01:05:37.693Z,100.00
2022-12-04T01:08:04.281Z,100.00
2022-12-04T01:10:30.995Z,100.00
2022-12-04T01:12:57.498Z,100.00
2022-12-04T01:15:24.024Z,100.00
2022-12-04T01:17:50.979Z,100.00
2022-12-04T01:20:17.830Z,100.00
2022-12-04T01:22:44.350Z,100.00
2022-12-04T01:25:11.049Z,100.00
2022-12-04T01:27:37.537Z,100.00
2022-12-04T01:30:04.504Z,100.00
2022-12-04T01:32:31.000Z,100.00
2022-12-04T01:34:57.542Z,100.00
2022-12-04T01:37:24.112Z,100.00
2022-12-04T01:39:50.669Z,100.00
2022-12-04T01:42:17.231Z,100.00
2022-12-04T01:45:21.090Z,100.00
2022-12-04T01:47:47.625Z,100.00
2022-12-04T01:50:14.132Z,100.00
2022-12-04T01:52:40.848Z,100.00
2022-12-04T01:55:08.037Z,100.00
2022-12-04T01:57:35.808Z,100.00
2022-12-04T02:00:07.691Z,100.00
2022-12-04T02:02:37.280Z,100.00
2022-12-04T02:05:06.707Z,100.00
2022-12-04T02:07:33.765Z,100.00
2022-12-04T02:10:06.245Z,100.00
2022-12-04T02:13:02.751Z,100.00
2022-12-04T02:15:51.737Z,100.00
2022-12-04T02:18:29.465Z,100.00
2022-12-04T02:21:16.184Z,100.00
2022-12-04T02:24:17.438Z,100.00
2022-12-04T02:27:02.062Z,100.00
2022-12-04T02:29:38.960Z,100.00
2022-12-04T02:32:20.176Z,100.00
2022-12-04T02:35:04.397Z,100.00
2022-12-04T02:37:38.462Z,100.00
2022-12-04T02:40:09.659Z,100.00
2022-12-04T02:42:58.321Z,100.00
2022-12-04T02:45:31.882Z,100.00
2022-12-04T02:48:02.365Z,100.00
2022-12-04T02:50:30.745Z,100.00
2022-12-04T02:53:03.966Z,100.00
2022-12-04T02:55:44.069Z,100.00
2022-12-04T02:58:16.913Z,100.00
2022-12-04T03:00:47.228Z,100.00
2022-12-04T03:03:20.413Z,100.00
2022-12-04T03:05:58.816Z,100.00
2022-12-04T03:08:34.609Z,100.00
2022-12-04T03:11:01.935Z,100.00
2022-12-04T03:13:41.777Z,100.00
2022-12-04T03:16:31.321Z,100.00
2022-12-04T03:19:09.732Z,100.00
2022-12-04T03:21:39.481Z,100.00
2022-12-04T03:24:13.753Z,100.00
2022-12-04T03:26:50.160Z,100.00
2022-12-04T03:29:26.160Z,100.00
2022-12-04T03:32:23.880Z,100.00
2022-12-04T03:35:11.306Z,100.00
2022-12-04T03:37:45.902Z,100.00
2022-12-04T03:40:43.960Z,100.00
2022-12-04T03:43:19.968Z,100.00
2022-12-04T03:45:50.530Z,100.00
2022-12-04T03:49:02.013Z,100.00
2022-12-04T03:51:43.649Z,100.00
2022-12-04T03:54:16.465Z,100.00
2022-12-04T03:56:56.354Z,100.00
2022-12-04T03:59:28.156Z,100.00
2022-12-04T04:01:58.018Z,100.00
2022-12-04T04:04:31.821Z,100.00
2022-12-04T04:07:04.769Z,100.00
2022-12-04T04:09:37.184Z,100.00
2022-12-04T04:12:08.935Z,100.00
2022-12-04T04:15:00.684Z,100.00
2022-12-04T04:17:50.031Z,100.00
2022-12-04T04:20:39.890Z,100.00
2022-12-04T04:23:27.776Z,100.00
2022-12-04T04:25:58.169Z,100.00
2022-12-04T04:28:35.036Z,100.00
2022-12-04T04:31:16.977Z,100.00
2022-12-04T04:34:41.105Z,100.00
2022-12-04T04:37:13.844Z,100.00
2022-12-04T04:40:01.048Z,100.00
2022-12-04T04:42:29.691Z,100.00
2022-12-04T04:45:21.406Z,100.00
2022-12-04T04:47:56.965Z,100.00
2022-12-04T04:50:24.366Z,100.00
2022-12-04T04:52:55.082Z,100.00
2022-12-04T04:55:22.974Z,100.00
2022-12-04T04:57:49.608Z,100.00
2022-12-04T05:00:22.518Z,100.00
2022-12-04T05:02:50.316Z,100.00
2022-12-04T05:05:17.616Z,100.00
2022-12-04T05:07:44.181Z,100.00
2022-12-04T05:10:11.061Z,100.00
2022-12-04T05:12:37.596Z,100.00
2022-12-04T05:15:04.531Z,100.00
2022-12-04T05:17:31.030Z,100.00
2022-12-04T05:19:58.081Z,100.00
2022-12-04T05:22:35.631Z,100.00
2022-12-04T05:25:03.838Z,100.00
2022-12-04T05:27:31.088Z,100.00
2022-12-04T05:29:59.108Z,100.00
2022-12-04T05:32:28.201Z,100.00
2022-12-04T05:34:56.248Z,100.00
2022-12-04T05:37:23.914Z,100.00
2022-12-04T05:39:50.443Z,100.00
2022-12-04T05:42:17.112Z,100.00
2022-12-04T05:44:43.706Z,100.00
2022-12-04T05:47:10.382Z,100.00
2022-12-04T05:49:37.322Z,100.00
2022-12-04T05:52:05.175Z,100.00
2022-12-04T05:54:32.180Z,100.00
2022-12-04T05:56:59.119Z,100.00
2022-12-04T05:59:25.734Z,100.00
2022-12-04T06:01:52.335Z,100.00
2022-12-04T06:04:18.941Z,100.00
2022-12-04T06:06:45.482Z,100.00
2022-12-04T06:09:12.097Z,100.00
2022-12-04T06:11:40.584Z,100.00
2022-12-04T06:14:11.673Z,100.00
2022-12-04T06:16:40.736Z,100.00
2022-12-04T06:19:12.300Z,100.00
2022-12-04T06:21:40.804Z,100.00
2022-12-04T06:24:08.381Z,100.00
2022-12-04T06:26:34.916Z,100.00
2022-12-04T06:29:01.727Z,100.00
2022-12-04T06:31:29.925Z,100.00
2022-12-04T06:33:57.879Z,100.00
2022-12-04T06:36:25.333Z,100.00
2022-12-04T06:38:55.072Z,100.00
2022-12-04T06:41:23.156Z,100.00
2022-12-04T06:43:51.819Z,100.00
2022-12-04T06:46:24.554Z,100.00
2022-12-04T06:48:51.644Z,100.00
2022-12-04T06:51:20.948Z,100.00
2022-12-04T06:53:47.924Z,100.00
2022-12-04T06:56:18.147Z,100.00
2022-12-04T06:58:49.685Z,100.00
2022-12-04T07:01:18.587Z,100.00
2022-12-04T07:03:50.974Z,100.00
2022-12-04T07:06:21.357Z,100.00
2022-12-04T07:08:50.608Z,100.00
2022-12-04T07:11:17.889Z,100.00
2022-12-04T07:13:44.569Z,100.00
2022-12-04T07:16:14.177Z,100.00
2022-12-04T07:18:41.118Z,100.00
2022-12-04T07:21:14.365Z,100.00
2022-12-04T07:23:40.948Z,100.00
2022-12-04T07:26:10.334Z,100.00
2022-12-04T07:28:37.716Z,100.00
2022-12-04T07:31:06.706Z,100.00
2022-12-04T07:33:34.227Z,100.00
2022-12-04T07:36:04.352Z,100.00
2022-12-04T07:38:31.494Z,100.00
2022-12-04T07:40:59.366Z,100.00
2022-12-04T07:43:27.230Z,100.00
2022-12-04T07:45:53.818Z,100.00
2022-12-04T07:48:20.432Z,100.00
2022-12-04T07:50:47.311Z,100.00
2022-12-04T07:53:14.351Z,100.00
2022-12-04T07:55:40.868Z,100.00
2022-12-04T07:58:07.448Z,100.00
2022-12-04T08:00:33.961Z,100.00
2022-12-04T08:03:00.496Z,100.00
2022-12-04T08:05:27.238Z,100.00
2022-12-04T08:07:53.811Z,100.00
2022-12-04T08:10:20.340Z,100.00
2022-12-04T08:12:46.826Z,100.00
2022-12-04T08:15:13.355Z,100.00
2022-12-04T08:17:40.007Z,100.00
2022-12-04T08:20:07.257Z,100.00
2022-12-04T08:22:33.744Z,100.00
2022-12-04T08:25:00.238Z,100.00
2022-12-04T08:27:26.716Z,100.00
2022-12-04T08:29:53.660Z,100.00
2022-12-04T08:32:20.466Z,100.00
2022-12-04T08:34:49.889Z,100.00
2022-12-04T08:37:20.573Z,100.00
2022-12-04T08:39:47.060Z,100.00
2022-12-04T08:42:13.869Z,99.52
2022-12-04T08:44:40.381Z,99.27
2022-12-04T08:47:06.932Z,98.07
2022-12-04T08:49:33.669Z,96.65
2022-12-04T08:52:00.185Z,96.22
2022-12-04T08:54:28.509Z,96.80
2022-12-04T08:57:00.334Z,95.97
2022-12-04T08:59:27.165Z,94.49
2022-12-04T09:01:53.803Z,93.42
2022-12-04T09:04:20.465Z,92.79
2022-12-04T09:06:47.005Z,91.01
2022-12-04T09:09:13.611Z,89.95
2022-12-04T09:11:40.113Z,88.05
2022-12-04T09:14:06.668Z,88.00
2022-12-04T09:16:33.239Z,86.75
2022-12-04T09:18:59.925Z,87.46
2022-12-04T09:21:26.457Z,85.53
2022-12-04T09:23:53.116Z,85.89
2022-12-04T09:26:21.753Z,85.21
2022-12-04T09:28:49.856Z,84.79
2022-12-04T09:31:16.902Z,82.70
2022-12-04T09:33:43.750Z,80.34
2022-12-04T09:36:16.021Z,80.21
2022-12-04T09:38:44.784Z,78.92
2022-12-04T09:41:37.845Z,77.08
2022-12-04T09:44:10.674Z,75.40
2022-12-04T09:46:51.379Z,74.38
2022-12-04T09:49:31.682Z,72.01
2022-12-04T09:52:03.783Z,71.75
2022-12-04T09:54:39.601Z,69.37
2022-12-04T09:57:16.530Z,68.17
2022-12-04T09:59:45.709Z,66.46
2022-12-04T10:02:12.198Z,65.30
2022-12-04T10:04:38.883Z,64.80
2022-12-04T10:07:45.341Z,63.80
2022-12-04T10:10:30.076Z,63.15
2022-12-04T10:13:02.440Z,63.81
2022-12-04T10:15:46.945Z,62.85
2022-12-04T10:18:26.329Z,62.79
2022-12-04T10:21:01.863Z,61.42
2022-12-04T10:23:53.804Z,60.54
2022-12-04T10:26:27.827Z,57.91
2022-12-04T10:28:58.757Z,58.25
2022-12-04T10:31:27.941Z,58.44
2022-12-04T10:34:03.665Z,56.93
2022-12-04T10:36:34.070Z,55.14
2022-12-04T10:39:09.638Z,55.05
2022-12-04T10:41:59.693Z,54.08
2022-12-04T10:44:26.479Z,52.86
2022-12-04T10:47:03.019Z,51.47
2022-12-04T10:49:34.332Z,53.09
2022-12-04T10:52:01.056Z,52.31
2022-12-04T10:54:40.596Z,51.71
2022-12-04T10:57:10.056Z,50.73
2022-12-04T10:59:40.669Z,49.62
2022-12-04T11:02:29.062Z,49.49
2022-12-04T11:05:04.744Z,50.29
2022-12-04T11:07:35.971Z,49.42
2022-12-04T11:10:29.626Z,48.50
2022-12-04T11:13:05.207Z,48.06
2022-12-04T11:15:35.856Z,47.51
2022-12-04T11:18:33.148Z,46.68
2022-12-04T11:21:04.178Z,46.62
2022-12-04T11:23:41.959Z,46.72
2022-12-04T11:26:09.794Z,46.47
2022-12-04T11:28:42.417Z,45.79
2022-12-04T11:31:15.235Z,45.68
2022-12-04T11:34:05.342Z,45.13
2022-12-04T11:36:36.165Z,45.27
2022-12-04T11:39:16.428Z,45.04
2022-12-04T11:41:43.020Z,45.86
2022-12-04T11:44:26.135Z,45.35
2022-12-04T11:46:55.277Z,45.82
2022-12-04T11:49:23.674Z,44.88
2022-12-04T11:51:59.122Z,44.96
2022-12-04T11:54:37.345Z,44.40
2022-12-04T11:57:09.611Z,43.92
2022-12-04T11:59:45.089Z,45.27
2022-12-04T12:02:40.471Z,45.50
2022-12-04T12:05:22.377Z,44.80
2022-12-04T12:08:05.908Z,45.62
2022-12-04T12:10:53.579Z,46.05
2022-12-04T12:13:42.091Z,45.75
2022-12-04T12:16:33.601Z,45.57
2022-12-04T12:19:15.923Z,46.83
2022-12-04T12:21:42.350Z,47.03
2022-12-04T12:24:20.787Z,46.40
2022-12-04T12:26:56.208Z,47.04
2022-12-04T12:29:46.765Z,47.90
2022-12-04T12:32:31.721Z,47.86
2022-12-04T12:35:00.567Z,48.42
2022-12-04T12:37:57.645Z,48.92
2022-12-04T12:41:12.074Z,49.22
2022-12-04T12:43:40.397Z,49.42
2022-12-04T12:46:15.332Z,50.74
2022-12-04T12:49:09.137Z,50.75
2022-12-04T12:51:45.890Z,51.10
2022-12-04T12:54:21.313Z,49.82
2022-12-04T12:56:53.376Z,49.92
2022-12-04T12:59:25.469Z,49.89
2022-12-04T13:02:00.673Z,49.14
2022-12-04T13:04:45.621Z,49.27
2022-12-04T13:07:18.009Z,51.16
2022-12-04T13:10:00.125Z,51.15
2022-12-04T13:12:27.687Z,51.99
2022-12-04T13:14:54.193Z,53.01
2022-12-04T13:17:31.413Z,53.31
2022-12-04T13:20:08.258Z,53.49
2022-12-04T13:22:55.572Z,54.61
2022-12-04T13:25:35.580Z,55.08
2022-12-04T13:28:15.824Z,56.84
2022-12-04T13:30:55.157Z,57.12
2022-12-04T13:33:44.165Z,58.73
2022-12-04T13:36:16.482Z,59.44
2022-12-04T13:38:51.563Z,59.56
2022-12-04T13:41:24.349Z,59.69
2022-12-04T13:43:52.220Z,60.35
2022-12-04T13:46:21.562Z,60.54
2022-12-04T13:48:48.403Z,61.59
2022-12-04T13:51:15.099Z,62.41
2022-12-04T13:53:43.731Z,63.09
2022-12-04T13:56:26.172Z,63.49
2022-12-04T13:59:02.177Z,63.48
2022-12-04T14:01:37.335Z,64.43
2022-12-04T14:04:04.059Z,64.30
2022-12-04T14:06:39.309Z,65.08
2022-12-04T14:09:18.125Z,65.34
2022-12-04T14:11:47.895Z,65.42
2022-12-04T14:14:45.722Z,65.65
2022-12-04T14:17:25.437Z,66.49
2022-12-04T14:20:05.765Z,66.56
2022-12-04T14:22:34.613Z,67.36
2022-12-04T14:25:13.497Z,67.87
2022-12-04T14:27:47.432Z,67.23
2022-12-04T14:30:20.114Z,67.22
2022-12-04T14:32:49.852Z,67.00
2022-12-04T14:35:20.738Z,67.84
2022-12-04T14:38:06.592Z,68.27
2022-12-04T14:40:43.064Z,68.56
2022-12-04T14:43:22.419Z,69.20
2022-12-04T14:46:26.432Z,69.89
2022-12-04T14:49:29.008Z,69.69
2022-12-04T14:52:08.613Z,70.70
2022-12-04T14:55:06.025Z,71.03
2022-12-04T14:57:41.096Z,71.49
2022-12-04T15:00:22.267Z,71.24
2022-12-04T15:02:52.427Z,71.45
2022-12-04T15:05:27.512Z,72.12
2022-12-04T15:08:00.284Z,72.23
2022-12-04T15:10:50.134Z,72.91
2022-12-04T15:13:31.666Z,73.21
2022-12-04T15:15:58.305Z,73.95
2022-12-04T15:18:25.100Z,73.58
2022-12-04T15:20:51.552Z,74.75
2022-12-04T15:23:22.913Z,74.99
2022-12-04T15:25:54.972Z,74.82
2022-12-04T15:28:29.109Z,75.25
2022-12-04T15:30:58.080Z,75.99
2022-12-04T15:33:28.833Z,76.58
2022-12-04T15:36:09.953Z,77.14
2022-12-04T15:38:36.923Z,76.08
2022-12-04T15:41:03.463Z,77.33
2022-12-04T15:43:31.226Z,77.88
2022-12-04T15:45:58.561Z,78.11
2022-12-04T15:48:30.727Z,78.12
2022-12-04T15:51:07.159Z,78.14
2022-12-04T15:53:37.667Z,78.07
2022-12-04T15:56:09.979Z,78.13
2022-12-04T15:58:39.495Z,78.40
2022-12-04T16:01:11.480Z,78.56
2022-12-04T16:03:48.814Z,79.66
2022-12-04T16:06:18.232Z,78.97
2022-12-04T16:08:53.197Z,79.57
2022-12-04T16:11:22.489Z,80.31
2022-12-04T16:14:03.998Z,80.76
2022-12-04T16:16:30.922Z,81.01
2022-12-04T16:18:57.800Z,80.55
2022-12-04T16:21:30.428Z,80.64
2022-12-04T16:24:04.704Z,80.80
2022-12-04T16:26:31.361Z,81.87
2022-12-04T16:28:59.261Z,81.44
2022-12-04T16:31:26.359Z,82.27
2022-12-04T16:33:52.921Z,82.08
2022-12-04T16:36:19.646Z,82.69
2022-12-04T16:38:46.224Z,83.17
2022-12-04T16:41:17.661Z,82.83
2022-12-04T16:43:44.703Z,82.92
2022-12-04T16:46:16.168Z,83.07
2022-12-04T16:48:43.193Z,82.82
2022-12-04T16:51:15.839Z,83.35
2022-12-04T16:53:44.063Z,82.80
2022-12-04T16:56:10.717Z,83.18
2022-12-04T16:58:37.221Z,83.62
2022-12-04T17:01:10.147Z,84.08
2022-12-04T17:03:36.690Z,84.91
2022-12-04T17:06:03.237Z,84.86
2022-12-04T17:08:29.805Z,84.67
2022-12-04T17:10:56.325Z,84.11
2022-12-04T17:13:23.369Z,85.40
2022-12-04T17:15:50.196Z,85.13
2022-12-04T17:18:21.061Z,85.54
2022-12-04T17:20:48.002Z,85.94
2022-12-04T17:23:14.779Z,86.21
2022-12-04T17:25:43.691Z,87.15
2022-12-04T17:28:10.219Z,87.64
2022-12-04T17:30:36.835Z,87.85
2022-12-04T17:33:05.220Z,87.61
2022-12-04T17:35:32.044Z,88.28
2022-12-04T17:38:05.455Z,88.17
2022-12-04T17:40:33.190Z,88.12
2022-12-04T17:42:59.747Z,88.72
2022-12-04T17:45:26.239Z,88.25
2022-12-04T17:47:52.803Z,89.30
2022-12-04T17:50:19.335Z,88.18
2022-12-04T17:52:45.866Z,88.89
2022-12-04T17:55:12.459Z,88.55
2022-12-04T17:57:39.021Z,89.34
2022-12-04T18:00:08.305Z,90.02
2022-12-04T18:02:34.898Z,90.10
2022-12-04T18:05:01.463Z,90.87
2022-12-04T18:07:28.034Z,90.02
2022-12-04T18:09:54.717Z,90.24
2022-12-04T18:12:21.461Z,90.90
2022-12-04T18:14:48.013Z,90.64
2022-12-04T18:17:17.480Z,91.16
2022-12-04T18:19:43.997Z,90.83
2022-12-04T18:22:10.634Z,90.80
2022-12-04T18:24:37.153Z,91.08
2022-12-04T18:27:03.817Z,91.59
2022-12-04T18:29:30.306Z,92.57
2022-12-04T18:31:57.743Z,91.92
2022-12-04T18:34:24.701Z,93.25
2022-12-04T18:36:51.408Z,92.76
2022-12-04T18:39:24.499Z,93.51
2022-12-04T18:41:51.250Z,93.55
2022-12-04T18:44:18.203Z,92.94
2022-12-04T18:46:44.792Z,93.15
2022-12-04T18:49:11.828Z,93.18
2022-12-04T18:51:40.926Z,93.22
2022-12-04T18:54:13.017Z,93.49
2022-12-04T18:56:39.893Z,93.98
2022-12-04T18:59:18.884Z,94.47
2022-12-04T19:01:45.573Z,94.64
2022-12-04T19:04:14.412Z,93.92
2022-12-04T19:06:48.822Z,94.50
2022-12-04T19:09:18.686Z,94.18
2022-12-04T19:11:45.960Z,94.47
2022-12-04T19:14:22.318Z,94.55
2022-12-04T19:16:49.884Z,94.91
2022-12-04T19:19:16.945Z,94.56
2022-12-04T19:21:44.485Z,95.03
2022-12-04T19:24:11.537Z,94.54
2022-12-04T19:26:38.142Z,94.55
2022-12-04T19:29:05.320Z,94.61
2022-12-04T19:31:34.251Z,94.34
2022-12-04T19:34:01.642Z,94.26
2022-12-04T19:36:30.054Z,93.67
2022-12-04T19:38:57.797Z,93.88
2022-12-04T19:41:27.705Z,93.62
2022-12-04T19:44:00.151Z,93.49
2022-12-04T19:46:30.676Z,93.09
2022-12-04T19:49:01.795Z,93.41
2022-12-04T19:51:31.895Z,93.25
2022-12-04T19:53:59.548Z,92.54
2022-12-04T19:56:28.568Z,93.08
2022-12-04T19:58:58.453Z,92.76
2022-12-04T20:01:28.431Z,92.38
2022-12-04T20:03:56.077Z,91.51
2022-12-04T20:06:25.672Z,91.41
2022-12-04T20:08:57.973Z,91.41
2022-12-04T20:11:25.719Z,92.24
2022-12-04T20:13:56.739Z,92.47
2022-12-04T20:16:25.475Z,92.44
2022-12-04T20:18:52.647Z,92.36
2022-12-04T20:21:19.893Z,91.87
2022-12-04T20:23:51.460Z,92.04
2022-12-04T20:26:23.707Z,92.24
2022-12-04T20:28:50.499Z,92.36
2022-12-04T20:31:22.292Z,92.70
2022-12-04T20:33:51.455Z,92.68
2022-12-04T20:36:19.908Z,92.83
2022-12-04T20:38:47.152Z,92.47
2022-12-04T20:41:16.114Z,92.28
2022-12-04T20:43:47.083Z,92.66
2022-12-04T20:46:21.051Z,92.39
2022-12-04T20:48:49.271Z,92.23
2022-12-04T20:51:22.197Z,92.11
2022-12-04T20:53:49.930Z,92.58
2022-12-04T20:56:18.538Z,92.49
2022-12-04T20:58:45.589Z,92.84
2022-12-04T21:01:15.929Z,92.72
2022-12-04T21:03:43.384Z,92.42
2022-12-04T21:06:34.824Z,93.17
2022-12-04T21:09:05.915Z,93.09
2022-12-04T21:11:53.798Z,92.51
2022-12-04T21:14:47.744Z,92.67
2022-12-04T21:17:18.656Z,92.28
2022-12-04T21:19:47.083Z,92.24
2022-12-04T21:22:14.156Z,91.69
2022-12-04T21:24:42.167Z,91.73
2022-12-04T21:27:10.982Z,91.74
2022-12-04T21:29:39.106Z,91.64
2022-12-04T21:32:06.756Z,90.81
2022-12-04T21:34:33.945Z,90.52
2022-12-04T21:37:00.470Z,90.48
2022-12-04T21:39:27.062Z,90.79
2022-12-04T21:42:12.536Z,90.87
2022-12-04T21:44:39.135Z,90.91
2022-12-04T21:47:05.644Z,90.90
2022-12-04T21:49:32.410Z,90.58
2022-12-04T21:51:59.397Z,89.82
2022-12-04T21:54:29.131Z,89.90
2022-12-04T21:56:56.921Z,89.87
2022-12-04T21:59:25.146Z,89.04
2022-12-04T22:01:52.348Z,88.55
2022-12-04T22:04:19.715Z,87.23
2022-12-04T22:06:46.460Z,86.14
2022-12-04T22:09:13.486Z,86.08
2022-12-04T22:11:44.128Z,86.12
2022-12-04T22:14:12.124Z,85.77
2022-12-04T22:16:42.348Z,86.05
2022-12-04T22:19:11.434Z,86.30
2022-12-04T22:21:38.348Z,85.24
2022-12-04T22:24:05.701Z,85.58
2022-12-04T22:26:32.428Z,85.47
2022-12-04T22:28:59.174Z,84.72
2022-12-04T22:31:28.097Z,84.58
2022-12-04T22:33:56.389Z,84.44
2022-12-04T22:36:25.832Z,85.43
2022-12-04T22:39:08.721Z,85.50
2022-12-04T22:41:36.334Z,85.72
2022-12-04T22:44:02.911Z,86.71
2022-12-04T22:46:29.509Z,86.41
2022-12-04T22:48:56.108Z,86.73
2022-12-04T22:51:22.904Z,85.57
2022-12-04T22:53:52.385Z,85.28
2022-12-04T22:56:28.128Z,85.03
2022-12-04T22:58:55.214Z,84.93
2022-12-04T23:01:24.690Z,84.39
2022-12-04T23:03:51.759Z,84.71
2022-12-04T23:06:19.804Z,84.50
2022-12-04T23:08:47.060Z,84.94
2022-12-04T23:11:17.393Z,85.35
2022-12-04T23:13:49.665Z,84.91
2022-12-04T23:16:20.121Z,85.05
2022-12-04T23:18:47.545Z,85.30
2022-12-04T23:21:14.917Z,85.84
2022-12-04T23:23:43.418Z,85.33
2022-12-04T23:26:12.863Z,85.48
2022-12-04T23:28:39.503Z,86.28
2022-12-04T23:31:06.339Z,86.43
2022-12-04T23:33:33.284Z,86.78
2022-12-04T23:36:01.572Z,86.59
2022-12-04T23:38:29.243Z,86.07
2022-12-04T23:41:03.331Z,86.56
2022-12-04T23:43:29.861Z,86.72
2022-12-04T23:45:56.793Z,86.41
2022-12-04T23:48:24.645Z,86.52
2022-12-04T23:50:52.061Z,86.34
2022-12-04T23:53:18.972Z,85.83
2022-12-04T23:55:54.756Z,86.39
2022-12-04T23:58:21.299Z,86.79
